sensor_id;sensor_type;location;lat;lon;timestamp;P1;durP1;ratioP1;P2;durP2;ratioP2
10523;SDS011;5310;48.638;9.060;2023-02-22T00:01:12;1.00;;;1.00;;
10523;SDS011;5310;48.638;9.060;2023-02-22T00:03:57;1.00;;;1.00;;
10523;SDS011;5310;48.638;9.060;2023-02-22T00:06:23;1.00;;;1.00;;
10523;SDS011;5310;48.638;9.060;2023-02-22T00:08:49;1.10;;;1.10;;
10523;SDS011;5310;48.638;9.060;2023-02-22T00:11:16;1.00;;;1.00;;
10523;SDS011;5310;48.638;9.060;2023-02-22T00:13:42;1.00;;;1.00;;
10523;SDS011;5310;48.638;9.060;2023-02-22T00:16:12;1.00;;;1.00;;
10523;SDS011;5310;48.638;9.060;2023-02-22T00:18:41;1.00;;;1.00;;
10523;SDS011;5310;48.638;9.060;2023-02-22T00:21:08;1.00;;;1.00;;
10523;SDS011;5310;48.638;9.060;2023-02-22T00:23:34;1.00;;;1.00;;
10523;SDS011;5310;48.638;9.060;2023-02-22T00:26:04;1.10;;;1.10;;
10523;SDS011;5310;48.638;9.060;2023-02-22T00:28:30;1.00;;;1.00;;
10523;SDS011;5310;48.638;9.060;2023-02-22T00:30:56;1.00;;;1.00;;
10523;SDS011;5310;48.638;9.060;2023-02-22T00:33:23;1.00;;;1.00;;
10523;SDS011;5310;48.638;9.060;2023-02-22T00:35:49;1.00;;;1.00;;
10523;SDS011;5310;48.638;9.060;2023-02-22T00:38:16;1.00;;;1.00;;
10523;SDS011;5310;48.638;9.060;2023-02-22T00:40:42;1.00;;;1.00;;
10523;SDS011;5310;48.638;9.060;2023-02-22T00:43:09;1.00;;;1.00;;
10523;SDS011;5310;48.638;9.060;2023-02-22T00:45:35;1.10;;;1.10;;
10523;SDS011;5310;48.638;9.060;2023-02-22T00:48:02;1.00;;;1.00;;
10523;SDS011;5310;48.638;9.060;2023-02-22T00:50:29;1.10;;;1.10;;
10523;SDS011;5310;48.638;9.060;2023-02-22T00:52:56;1.00;;;1.00;;
10523;SDS011;5310;48.638;9.060;2023-02-22T00:55:24;1.03;;;1.03;;
10523;SDS011;5310;48.638;9.060;2023-02-22T00:57:51;1.00;;;1.00;;
10523;SDS011;5310;48.638;9.060;2023-02-22T01:00:19;1.00;;;1.00;;
10523;SDS011;5310;48.638;9.060;2023-02-22T01:02:45;1.00;;;1.00;;
10523;SDS011;5310;48.638;9.060;2023-02-22T01:05:15;1.10;;;1.10;;
10523;SDS011;5310;48.638;9.060;2023-02-22T01:07:41;1.00;;;1.00;;
10523;SDS011;5310;48.638;9.060;2023-02-22T01:10:09;1.00;;;1.00;;
10523;SDS011;5310;48.638;9.060;2023-02-22T01:12:35;1.10;;;1.10;;
10523;SDS011;5310;48.638;9.060;2023-02-22T01:15:02;1.00;;;1.00;;
10523;SDS011;5310;48.638;9.060;2023-02-22T01:17:30;1.00;;;1.00;;
10523;SDS011;5310;48.638;9.060;2023-02-22T01:19:56;1.00;;;1.00;;
10523;SDS011;5310;48.638;9.060;2023-02-22T01:22:22;1.00;;;1.00;;
10523;SDS011;5310;48.638;9.060;2023-02-22T01:24:48;1.00;;;1.00;;
10523;SDS011;5310;48.638;9.060;2023-02-22T01:27:15;1.00;;;1.00;;
10523;SDS011;5310;48.638;9.060;2023-02-22T01:29:41;1.00;;;1.00;;
10523;SDS011;5310;48.638;9.060;2023-02-22T01:32:07;1.00;;;1.00;;
10523;SDS011;5310;48.638;9.060;2023-02-22T01:34:35;1.00;;;1.00;;
10523;SDS011;5310;48.638;9.060;2023-02-22T01:37:02;1.10;;;1.10;;
10523;SDS011;5310;48.638;9.060;2023-02-22T01:39:27;1.10;;;1.10;;
10523;SDS011;5310;48.638;9.060;2023-02-22T01:41:53;1.10;;;1.10;;
10523;SDS011;5310;48.638;9.060;2023-02-22T01:44:23;1.10;;;1.10;;
10523;SDS011;5310;48.638;9.060;2023-02-22T01:46:59;1.00;;;1.00;;
10523;SDS011;5310;48.638;9.060;2023-02-22T01:49:29;1.10;;;1.10;;
10523;SDS011;5310;48.638;9.060;2023-02-22T01:52:01;1.10;;;1.10;;
10523;SDS011;5310;48.638;9.060;2023-02-22T01:54:32;1.03;;;1.03;;
10523;SDS011;5310;48.638;9.060;2023-02-22T01:57:03;1.00;;;1.00;;
10523;SDS011;5310;48.638;9.060;2023-02-22T01:59:32;1.10;;;1.10;;
10523;SDS011;5310;48.638;9.060;2023-02-22T02:02:00;1.10;;;1.10;;
10523;SDS011;5310;48.638;9.060;2023-02-22T02:04:28;1.00;;;1.00;;
10523;SDS011;5310;48.638;9.060;2023-02-22T02:06:55;1.10;;;1.10;;
10523;SDS011;5310;48.638;9.060;2023-02-22T02:09:25;1.10;;;1.10;;
10523;SDS011;5310;48.638;9.060;2023-02-22T02:12:01;1.10;;;1.10;;
10523;SDS011;5310;48.638;9.060;2023-02-22T02:14:29;1.00;;;1.00;;
10523;SDS011;5310;48.638;9.060;2023-02-22T02:16:58;1.07;;;1.07;;
10523;SDS011;5310;48.638;9.060;2023-02-22T02:19:40;1.03;;;1.03;;
10523;SDS011;5310;48.638;9.060;2023-02-22T02:24:54;1.00;;;1.00;;
10523;SDS011;5310;48.638;9.060;2023-02-22T02:30:34;1.10;;;1.10;;
10523;SDS011;5310;48.638;9.060;2023-02-22T02:33:06;1.00;;;1.00;;
10523;SDS011;5310;48.638;9.060;2023-02-22T02:35:46;1.00;;;1.00;;
10523;SDS011;5310;48.638;9.060;2023-02-22T02:40:47;1.10;;;1.10;;
10523;SDS011;5310;48.638;9.060;2023-02-22T02:43:31;1.00;;;1.00;;
10523;SDS011;5310;48.638;9.060;2023-02-22T02:48:27;1.00;;;1.00;;
10523;SDS011;5310;48.638;9.060;2023-02-22T02:50:54;1.10;;;1.10;;
10523;SDS011;5310;48.638;9.060;2023-02-22T02:53:24;1.00;;;1.00;;
10523;SDS011;5310;48.638;9.060;2023-02-22T02:55:51;1.10;;;1.10;;
10523;SDS011;5310;48.638;9.060;2023-02-22T02:58:19;1.10;;;1.10;;
10523;SDS011;5310;48.638;9.060;2023-02-22T03:00:45;1.10;;;1.10;;
10523;SDS011;5310;48.638;9.060;2023-02-22T03:11:12;1.10;;;1.10;;
10523;SDS011;5310;48.638;9.060;2023-02-22T03:16:41;1.10;;;1.10;;
10523;SDS011;5310;48.638;9.060;2023-02-22T03:19:29;1.10;;;1.10;;
10523;SDS011;5310;48.638;9.060;2023-02-22T03:22:01;1.10;;;1.10;;
10523;SDS011;5310;48.638;9.060;2023-02-22T03:24:39;1.10;;;1.10;;
10523;SDS011;5310;48.638;9.060;2023-02-22T03:29:38;1.10;;;1.10;;
10523;SDS011;5310;48.638;9.060;2023-02-22T03:32:08;1.10;;;1.10;;
10523;SDS011;5310;48.638;9.060;2023-02-22T03:34:42;1.07;;;1.07;;
10523;SDS011;5310;48.638;9.060;2023-02-22T03:37:22;1.10;;;1.10;;
10523;SDS011;5310;48.638;9.060;2023-02-22T03:39:51;1.07;;;1.07;;
10523;SDS011;5310;48.638;9.060;2023-02-22T03:42:27;1.10;;;1.10;;
10523;SDS011;5310;48.638;9.060;2023-02-22T03:44:56;1.00;;;1.00;;
10523;SDS011;5310;48.638;9.060;2023-02-22T03:47:28;1.10;;;1.10;;
10523;SDS011;5310;48.638;9.060;2023-02-22T03:50:04;1.10;;;1.10;;
10523;SDS011;5310;48.638;9.060;2023-02-22T03:52:35;1.10;;;1.10;;
10523;SDS011;5310;48.638;9.060;2023-02-22T03:55:01;1.10;;;1.10;;
10523;SDS011;5310;48.638;9.060;2023-02-22T03:57:29;1.10;;;1.10;;
10523;SDS011;5310;48.638;9.060;2023-02-22T03:59:56;1.00;;;1.00;;
10523;SDS011;5310;48.638;9.060;2023-02-22T04:02:22;1.10;;;1.10;;
10523;SDS011;5310;48.638;9.060;2023-02-22T04:04:48;1.10;;;1.10;;
10523;SDS011;5310;48.638;9.060;2023-02-22T04:07:14;1.10;;;1.10;;
10523;SDS011;5310;48.638;9.060;2023-02-22T04:09:40;1.10;;;1.10;;
10523;SDS011;5310;48.638;9.060;2023-02-22T04:12:06;1.10;;;1.10;;
10523;SDS011;5310;48.638;9.060;2023-02-22T04:14:32;1.00;;;1.00;;
10523;SDS011;5310;48.638;9.060;2023-02-22T04:16:58;1.10;;;1.10;;
10523;SDS011;5310;48.638;9.060;2023-02-22T04:19:24;1.10;;;1.10;;
10523;SDS011;5310;48.638;9.060;2023-02-22T04:21:50;1.10;;;1.10;;
10523;SDS011;5310;48.638;9.060;2023-02-22T04:24:16;1.10;;;1.10;;
10523;SDS011;5310;48.638;9.060;2023-02-22T04:26:41;1.10;;;1.10;;
10523;SDS011;5310;48.638;9.060;2023-02-22T04:29:07;1.10;;;1.10;;
10523;SDS011;5310;48.638;9.060;2023-02-22T04:31:33;1.00;;;1.00;;
10523;SDS011;5310;48.638;9.060;2023-02-22T04:33:59;1.00;;;1.00;;
10523;SDS011;5310;48.638;9.060;2023-02-22T04:36:25;1.10;;;1.10;;
10523;SDS011;5310;48.638;9.060;2023-02-22T04:38:52;1.10;;;1.10;;
10523;SDS011;5310;48.638;9.060;2023-02-22T04:41:18;1.10;;;1.10;;
10523;SDS011;5310;48.638;9.060;2023-02-22T04:43:44;1.00;;;1.00;;
10523;SDS011;5310;48.638;9.060;2023-02-22T04:46:10;1.10;;;1.10;;
10523;SDS011;5310;48.638;9.060;2023-02-22T04:48:36;1.10;;;1.10;;
10523;SDS011;5310;48.638;9.060;2023-02-22T04:51:03;1.10;;;1.10;;
10523;SDS011;5310;48.638;9.060;2023-02-22T04:53:29;1.10;;;1.10;;
10523;SDS011;5310;48.638;9.060;2023-02-22T04:55:55;1.20;;;1.20;;
10523;SDS011;5310;48.638;9.060;2023-02-22T04:58:21;1.10;;;1.10;;
10523;SDS011;5310;48.638;9.060;2023-02-22T05:00:46;1.10;;;1.10;;
10523;SDS011;5310;48.638;9.060;2023-02-22T05:03:12;1.10;;;1.10;;
10523;SDS011;5310;48.638;9.060;2023-02-22T05:05:38;1.10;;;1.10;;
10523;SDS011;5310;48.638;9.060;2023-02-22T05:08:04;1.20;;;1.20;;
10523;SDS011;5310;48.638;9.060;2023-02-22T05:10:30;1.10;;;1.10;;
10523;SDS011;5310;48.638;9.060;2023-02-22T05:12:56;1.10;;;1.10;;
10523;SDS011;5310;48.638;9.060;2023-02-22T05:15:22;1.10;;;1.10;;
10523;SDS011;5310;48.638;9.060;2023-02-22T05:17:49;1.10;;;1.10;;
10523;SDS011;5310;48.638;9.060;2023-02-22T05:20:17;1.20;;;1.20;;
10523;SDS011;5310;48.638;9.060;2023-02-22T05:22:54;1.00;;;1.00;;
10523;SDS011;5310;48.638;9.060;2023-02-22T05:25:20;1.20;;;1.20;;
10523;SDS011;5310;48.638;9.060;2023-02-22T05:27:53;1.10;;;1.10;;
10523;SDS011;5310;48.638;9.060;2023-02-22T05:30:20;1.10;;;1.10;;
10523;SDS011;5310;48.638;9.060;2023-02-22T05:32:48;1.10;;;1.10;;
10523;SDS011;5310;48.638;9.060;2023-02-22T05:35:15;1.10;;;1.10;;
10523;SDS011;5310;48.638;9.060;2023-02-22T05:37:41;1.10;;;1.10;;
10523;SDS011;5310;48.638;9.060;2023-02-22T05:40:07;1.10;;;1.10;;
10523;SDS011;5310;48.638;9.060;2023-02-22T05:42:33;1.10;;;1.10;;
10523;SDS011;5310;48.638;9.060;2023-02-22T05:44:59;1.00;;;1.00;;
10523;SDS011;5310;48.638;9.060;2023-02-22T05:47:25;1.10;;;1.10;;
10523;SDS011;5310;48.638;9.060;2023-02-22T05:49:51;1.10;;;1.10;;
10523;SDS011;5310;48.638;9.060;2023-02-22T05:52:17;1.10;;;1.10;;
10523;SDS011;5310;48.638;9.060;2023-02-22T05:54:42;1.17;;;1.17;;
10523;SDS011;5310;48.638;9.060;2023-02-22T05:57:08;1.10;;;1.10;;
10523;SDS011;5310;48.638;9.060;2023-02-22T05:59:34;1.10;;;1.10;;
10523;SDS011;5310;48.638;9.060;2023-02-22T06:02:00;1.10;;;1.10;;
10523;SDS011;5310;48.638;9.060;2023-02-22T06:04:26;1.10;;;1.10;;
10523;SDS011;5310;48.638;9.060;2023-02-22T06:06:52;1.10;;;1.10;;
10523;SDS011;5310;48.638;9.060;2023-02-22T06:09:17;1.10;;;1.10;;
10523;SDS011;5310;48.638;9.060;2023-02-22T06:11:43;1.10;;;1.10;;
10523;SDS011;5310;48.638;9.060;2023-02-22T06:14:09;1.10;;;1.10;;
10523;SDS011;5310;48.638;9.060;2023-02-22T06:16:35;1.10;;;1.10;;
10523;SDS011;5310;48.638;9.060;2023-02-22T06:19:01;1.10;;;1.10;;
10523;SDS011;5310;48.638;9.060;2023-02-22T06:21:27;1.10;;;1.10;;
10523;SDS011;5310;48.638;9.060;2023-02-22T06:23:53;1.10;;;1.10;;
10523;SDS011;5310;48.638;9.060;2023-02-22T06:26:19;1.10;;;1.10;;
10523;SDS011;5310;48.638;9.060;2023-02-22T06:28:46;1.10;;;1.10;;
10523;SDS011;5310;48.638;9.060;2023-02-22T06:31:12;1.10;;;1.10;;
10523;SDS011;5310;48.638;9.060;2023-02-22T06:33:38;1.10;;;1.10;;
10523;SDS011;5310;48.638;9.060;2023-02-22T06:36:04;1.10;;;1.10;;
10523;SDS011;5310;48.638;9.060;2023-02-22T06:38:30;1.00;;;1.00;;
10523;SDS011;5310;48.638;9.060;2023-02-22T06:40:56;1.10;;;1.10;;
10523;SDS011;5310;48.638;9.060;2023-02-22T06:43:22;1.10;;;1.10;;
10523;SDS011;5310;48.638;9.060;2023-02-22T06:45:49;1.00;;;1.00;;
10523;SDS011;5310;48.638;9.060;2023-02-22T06:48:15;1.10;;;1.10;;
10523;SDS011;5310;48.638;9.060;2023-02-22T06:50:41;1.10;;;1.10;;
10523;SDS011;5310;48.638;9.060;2023-02-22T06:53:07;1.10;;;1.10;;
10523;SDS011;5310;48.638;9.060;2023-02-22T06:55:33;1.10;;;1.10;;
10523;SDS011;5310;48.638;9.060;2023-02-22T06:58:00;1.10;;;1.10;;
10523;SDS011;5310;48.638;9.060;2023-02-22T07:00:27;1.10;;;1.10;;
10523;SDS011;5310;48.638;9.060;2023-02-22T07:02:54;1.07;;;1.07;;
10523;SDS011;5310;48.638;9.060;2023-02-22T07:05:20;1.10;;;1.10;;
10523;SDS011;5310;48.638;9.060;2023-02-22T07:07:48;1.03;;;1.03;;
10523;SDS011;5310;48.638;9.060;2023-02-22T07:10:18;1.00;;;1.00;;
10523;SDS011;5310;48.638;9.060;2023-02-22T07:12:49;1.10;;;1.10;;
10523;SDS011;5310;48.638;9.060;2023-02-22T07:15:16;1.10;;;1.10;;
10523;SDS011;5310;48.638;9.060;2023-02-22T07:17:43;1.10;;;1.10;;
10523;SDS011;5310;48.638;9.060;2023-02-22T07:20:09;1.10;;;1.10;;
10523;SDS011;5310;48.638;9.060;2023-02-22T07:22:36;1.10;;;1.10;;
10523;SDS011;5310;48.638;9.060;2023-02-22T07:25:03;1.10;;;1.10;;
10523;SDS011;5310;48.638;9.060;2023-02-22T07:27:30;1.00;;;1.00;;
10523;SDS011;5310;48.638;9.060;2023-02-22T07:29:55;1.10;;;1.10;;
10523;SDS011;5310;48.638;9.060;2023-02-22T07:32:21;1.10;;;1.10;;
10523;SDS011;5310;48.638;9.060;2023-02-22T07:34:47;1.03;;;1.03;;
10523;SDS011;5310;48.638;9.060;2023-02-22T07:37:13;1.10;;;1.10;;
10523;SDS011;5310;48.638;9.060;2023-02-22T07:39:39;1.00;;;1.00;;
10523;SDS011;5310;48.638;9.060;2023-02-22T07:42:07;1.00;;;1.00;;
10523;SDS011;5310;48.638;9.060;2023-02-22T07:44:33;1.10;;;1.10;;
10523;SDS011;5310;48.638;9.060;2023-02-22T07:46:59;1.00;;;1.00;;
10523;SDS011;5310;48.638;9.060;2023-02-22T07:49:26;1.10;;;1.10;;
10523;SDS011;5310;48.638;9.060;2023-02-22T07:51:52;1.00;;;1.00;;
10523;SDS011;5310;48.638;9.060;2023-02-22T07:54:18;1.00;;;1.00;;
10523;SDS011;5310;48.638;9.060;2023-02-22T07:56:48;1.00;;;1.00;;
10523;SDS011;5310;48.638;9.060;2023-02-22T07:59:14;1.00;;;1.00;;
10523;SDS011;5310;48.638;9.060;2023-02-22T08:01:40;1.00;;;1.00;;
10523;SDS011;5310;48.638;9.060;2023-02-22T08:04:06;0.90;;;0.90;;
10523;SDS011;5310;48.638;9.060;2023-02-22T08:06:32;1.00;;;1.00;;
10523;SDS011;5310;48.638;9.060;2023-02-22T08:08:58;1.00;;;1.00;;
10523;SDS011;5310;48.638;9.060;2023-02-22T08:11:24;1.00;;;1.00;;
10523;SDS011;5310;48.638;9.060;2023-02-22T08:13:50;1.00;;;1.00;;
10523;SDS011;5310;48.638;9.060;2023-02-22T08:16:16;1.00;;;1.00;;
10523;SDS011;5310;48.638;9.060;2023-02-22T08:18:41;1.00;;;1.00;;
10523;SDS011;5310;48.638;9.060;2023-02-22T08:21:07;1.00;;;1.00;;
10523;SDS011;5310;48.638;9.060;2023-02-22T08:23:33;0.90;;;0.90;;
10523;SDS011;5310;48.638;9.060;2023-02-22T08:26:06;0.90;;;0.90;;
10523;SDS011;5310;48.638;9.060;2023-02-22T08:28:34;0.90;;;0.90;;
10523;SDS011;5310;48.638;9.060;2023-02-22T08:30:59;0.90;;;0.90;;
10523;SDS011;5310;48.638;9.060;2023-02-22T08:33:25;1.00;;;1.00;;
10523;SDS011;5310;48.638;9.060;2023-02-22T08:35:51;0.90;;;0.90;;
10523;SDS011;5310;48.638;9.060;2023-02-22T08:38:19;0.83;;;0.83;;
10523;SDS011;5310;48.638;9.060;2023-02-22T08:40:46;0.97;;;0.97;;
10523;SDS011;5310;48.638;9.060;2023-02-22T08:43:12;0.90;;;0.90;;
10523;SDS011;5310;48.638;9.060;2023-02-22T08:45:38;0.80;;;0.80;;
10523;SDS011;5310;48.638;9.060;2023-02-22T08:48:04;0.80;;;0.80;;
10523;SDS011;5310;48.638;9.060;2023-02-22T08:50:31;0.73;;;0.73;;
10523;SDS011;5310;48.638;9.060;2023-02-22T08:53:01;0.80;;;0.80;;
10523;SDS011;5310;48.638;9.060;2023-02-22T08:55:29;0.80;;;0.80;;
10523;SDS011;5310;48.638;9.060;2023-02-22T08:57:56;0.70;;;0.70;;
10523;SDS011;5310;48.638;9.060;2023-02-22T09:00:23;0.80;;;0.80;;
10523;SDS011;5310;48.638;9.060;2023-02-22T09:02:49;0.70;;;0.70;;
10523;SDS011;5310;48.638;9.060;2023-02-22T09:05:16;0.60;;;0.60;;
10523;SDS011;5310;48.638;9.060;2023-02-22T09:07:42;0.60;;;0.60;;
10523;SDS011;5310;48.638;9.060;2023-02-22T09:10:12;0.70;;;0.70;;
10523;SDS011;5310;48.638;9.060;2023-02-22T09:12:40;0.80;;;0.80;;
10523;SDS011;5310;48.638;9.060;2023-02-22T09:15:06;0.70;;;0.70;;
10523;SDS011;5310;48.638;9.060;2023-02-22T09:17:32;0.80;;;0.80;;
10523;SDS011;5310;48.638;9.060;2023-02-22T09:20:01;0.60;;;0.60;;
10523;SDS011;5310;48.638;9.060;2023-02-22T09:22:28;0.70;;;0.70;;
10523;SDS011;5310;48.638;9.060;2023-02-22T09:24:54;0.60;;;0.60;;
10523;SDS011;5310;48.638;9.060;2023-02-22T09:27:20;0.60;;;0.60;;
10523;SDS011;5310;48.638;9.060;2023-02-22T09:29:46;0.70;;;0.70;;
10523;SDS011;5310;48.638;9.060;2023-02-22T09:32:12;0.60;;;0.60;;
10523;SDS011;5310;48.638;9.060;2023-02-22T09:34:41;0.60;;;0.60;;
10523;SDS011;5310;48.638;9.060;2023-02-22T09:37:10;0.60;;;0.60;;
10523;SDS011;5310;48.638;9.060;2023-02-22T09:39:36;0.60;;;0.60;;
10523;SDS011;5310;48.638;9.060;2023-02-22T09:47:18;0.60;;;0.60;;
10523;SDS011;5310;48.638;9.060;2023-02-22T09:49:50;0.60;;;0.60;;
10523;SDS011;5310;48.638;9.060;2023-02-22T09:52:23;0.60;;;0.60;;
10523;SDS011;5310;48.638;9.060;2023-02-22T09:55:04;0.50;;;0.50;;
10523;SDS011;5310;48.638;9.060;2023-02-22T09:57:41;0.60;;;0.60;;
10523;SDS011;5310;48.638;9.060;2023-02-22T10:05:26;0.50;;;0.50;;
10523;SDS011;5310;48.638;9.060;2023-02-22T10:08:01;0.60;;;0.60;;
10523;SDS011;5310;48.638;9.060;2023-02-22T10:10:34;0.50;;;0.50;;
10523;SDS011;5310;48.638;9.060;2023-02-22T10:13:15;0.60;;;0.60;;
10523;SDS011;5310;48.638;9.060;2023-02-22T10:18:31;0.50;;;0.50;;
10523;SDS011;5310;48.638;9.060;2023-02-22T10:26:42;0.60;;;0.60;;
10523;SDS011;5310;48.638;9.060;2023-02-22T10:31:40;0.50;;;0.50;;
10523;SDS011;5310;48.638;9.060;2023-02-22T10:34:14;0.40;;;0.40;;
10523;SDS011;5310;48.638;9.060;2023-02-22T10:36:45;0.60;;;0.60;;
10523;SDS011;5310;48.638;9.060;2023-02-22T10:39:29;0.50;;;0.50;;
10523;SDS011;5310;48.638;9.060;2023-02-22T10:41:57;0.50;;;0.50;;
10523;SDS011;5310;48.638;9.060;2023-02-22T10:44:30;0.50;;;0.50;;
10523;SDS011;5310;48.638;9.060;2023-02-22T10:46:57;0.50;;;0.50;;
10523;SDS011;5310;48.638;9.060;2023-02-22T10:49:25;0.50;;;0.50;;
10523;SDS011;5310;48.638;9.060;2023-02-22T10:52:03;0.50;;;0.50;;
10523;SDS011;5310;48.638;9.060;2023-02-22T10:54:44;0.40;;;0.40;;
10523;SDS011;5310;48.638;9.060;2023-02-22T10:57:12;0.40;;;0.40;;
10523;SDS011;5310;48.638;9.060;2023-02-22T10:59:39;0.40;;;0.40;;
10523;SDS011;5310;48.638;9.060;2023-02-22T11:04:48;0.40;;;0.40;;
10523;SDS011;5310;48.638;9.060;2023-02-22T11:07:23;0.50;;;0.50;;
10523;SDS011;5310;48.638;9.060;2023-02-22T11:09:59;0.50;;;0.50;;
10523;SDS011;5310;48.638;9.060;2023-02-22T11:17:42;0.50;;;0.50;;
10523;SDS011;5310;48.638;9.060;2023-02-22T11:20:27;0.40;;;0.40;;
10523;SDS011;5310;48.638;9.060;2023-02-22T11:22:58;0.43;;;0.43;;
10523;SDS011;5310;48.638;9.060;2023-02-22T11:25:33;0.40;;;0.40;;
10523;SDS011;5310;48.638;9.060;2023-02-22T11:28:11;0.50;;;0.50;;
10523;SDS011;5310;48.638;9.060;2023-02-22T11:30:41;0.40;;;0.40;;
10523;SDS011;5310;48.638;9.060;2023-02-22T11:38:40;0.40;;;0.40;;
10523;SDS011;5310;48.638;9.060;2023-02-22T11:41:19;0.30;;;0.30;;
10523;SDS011;5310;48.638;9.060;2023-02-22T11:43:47;0.40;;;0.40;;
10523;SDS011;5310;48.638;9.060;2023-02-22T11:49:00;0.40;;;0.40;;
10523;SDS011;5310;48.638;9.060;2023-02-22T11:51:38;0.50;;;0.50;;
10523;SDS011;5310;48.638;9.060;2023-02-22T12:08:35;0.40;;;0.40;;
10523;SDS011;5310;48.638;9.060;2023-02-22T12:16:10;0.30;;;0.30;;
10523;SDS011;5310;48.638;9.060;2023-02-22T12:18:50;0.40;;;0.40;;
10523;SDS011;5310;48.638;9.060;2023-02-22T12:21:22;0.50;;;0.50;;
10523;SDS011;5310;48.638;9.060;2023-02-22T12:23:52;0.30;;;0.30;;
10523;SDS011;5310;48.638;9.060;2023-02-22T12:26:49;0.50;;;0.50;;
10523;SDS011;5310;48.638;9.060;2023-02-22T12:29:30;0.40;;;0.40;;
10523;SDS011;5310;48.638;9.060;2023-02-22T12:34:32;0.40;;;0.40;;
10523;SDS011;5310;48.638;9.060;2023-02-22T12:42:21;0.30;;;0.30;;
10523;SDS011;5310;48.638;9.060;2023-02-22T12:44:54;0.40;;;0.40;;
10523;SDS011;5310;48.638;9.060;2023-02-22T12:47:37;0.30;;;0.30;;
10523;SDS011;5310;48.638;9.060;2023-02-22T12:50:18;0.50;;;0.50;;
10523;SDS011;5310;48.638;9.060;2023-02-22T12:55:37;0.40;;;0.40;;
10523;SDS011;5310;48.638;9.060;2023-02-22T12:58:20;0.40;;;0.40;;
10523;SDS011;5310;48.638;9.060;2023-02-22T13:03:42;0.40;;;0.40;;
10523;SDS011;5310;48.638;9.060;2023-02-22T13:06:30;0.50;;;0.50;;
10523;SDS011;5310;48.638;9.060;2023-02-22T13:15:38;0.40;;;0.40;;
10523;SDS011;5310;48.638;9.060;2023-02-22T13:20:53;0.50;;;0.50;;
10523;SDS011;5310;48.638;9.060;2023-02-22T13:26:29;0.40;;;0.40;;
10523;SDS011;5310;48.638;9.060;2023-02-22T13:29:00;0.30;;;0.30;;
10523;SDS011;5310;48.638;9.060;2023-02-22T13:37:27;0.50;;;0.50;;
10523;SDS011;5310;48.638;9.060;2023-02-22T13:42:46;0.40;;;0.40;;
10523;SDS011;5310;48.638;9.060;2023-02-22T13:56:07;0.50;;;0.50;;
10523;SDS011;5310;48.638;9.060;2023-02-22T13:58:45;0.40;;;0.40;;
10523;SDS011;5310;48.638;9.060;2023-02-22T14:01:16;0.50;;;0.50;;
10523;SDS011;5310;48.638;9.060;2023-02-22T14:04:19;0.40;;;0.40;;
10523;SDS011;5310;48.638;9.060;2023-02-22T14:06:45;0.50;;;0.50;;
10523;SDS011;5310;48.638;9.060;2023-02-22T14:09:15;0.50;;;0.50;;
10523;SDS011;5310;48.638;9.060;2023-02-22T14:11:47;0.50;;;0.50;;
10523;SDS011;5310;48.638;9.060;2023-02-22T14:14:20;0.40;;;0.40;;
10523;SDS011;5310;48.638;9.060;2023-02-22T14:17:14;0.50;;;0.50;;
10523;SDS011;5310;48.638;9.060;2023-02-22T14:19:32;0.40;;;0.40;;
10523;SDS011;5310;48.638;9.060;2023-02-22T14:21:58;0.33;;;0.33;;
10523;SDS011;5310;48.638;9.060;2023-02-22T14:24:27;0.40;;;0.40;;
10523;SDS011;5310;48.638;9.060;2023-02-22T14:27:09;0.50;;;0.50;;
10523;SDS011;5310;48.638;9.060;2023-02-22T14:29:37;0.40;;;0.40;;
10523;SDS011;5310;48.638;9.060;2023-02-22T14:32:17;0.50;;;0.50;;
10523;SDS011;5310;48.638;9.060;2023-02-22T14:34:46;0.40;;;0.40;;
10523;SDS011;5310;48.638;9.060;2023-02-22T14:43:00;0.40;;;0.40;;
10523;SDS011;5310;48.638;9.060;2023-02-22T14:45:35;0.50;;;0.50;;
10523;SDS011;5310;48.638;9.060;2023-02-22T14:53:17;0.50;;;0.50;;
10523;SDS011;5310;48.638;9.060;2023-02-22T14:56:08;0.60;;;0.60;;
10523;SDS011;5310;48.638;9.060;2023-02-22T14:58:57;0.50;;;0.50;;
10523;SDS011;5310;48.638;9.060;2023-02-22T15:01:33;0.63;;;0.63;;
10523;SDS011;5310;48.638;9.060;2023-02-22T15:04:15;0.50;;;0.50;;
10523;SDS011;5310;48.638;9.060;2023-02-22T15:06:49;0.40;;;0.40;;
10523;SDS011;5310;48.638;9.060;2023-02-22T15:11:52;0.50;;;0.50;;
10523;SDS011;5310;48.638;9.060;2023-02-22T15:14:27;0.60;;;0.60;;
10523;SDS011;5310;48.638;9.060;2023-02-22T15:16:55;0.60;;;0.60;;
10523;SDS011;5310;48.638;9.060;2023-02-22T15:19:23;0.50;;;0.50;;
10523;SDS011;5310;48.638;9.060;2023-02-22T15:21:55;0.40;;;0.40;;
10523;SDS011;5310;48.638;9.060;2023-02-22T15:24:26;0.50;;;0.50;;
10523;SDS011;5310;48.638;9.060;2023-02-22T15:26:53;0.60;;;0.60;;
10523;SDS011;5310;48.638;9.060;2023-02-22T15:29:21;0.50;;;0.50;;
10523;SDS011;5310;48.638;9.060;2023-02-22T15:31:52;0.50;;;0.50;;
10523;SDS011;5310;48.638;9.060;2023-02-22T15:34:26;0.50;;;0.50;;
10523;SDS011;5310;48.638;9.060;2023-02-22T15:36:53;0.60;;;0.60;;
10523;SDS011;5310;48.638;9.060;2023-02-22T15:39:31;0.50;;;0.50;;
10523;SDS011;5310;48.638;9.060;2023-02-22T15:44:45;0.47;;;0.47;;
10523;SDS011;5310;48.638;9.060;2023-02-22T15:47:22;0.50;;;0.50;;
10523;SDS011;5310;48.638;9.060;2023-02-22T15:52:39;0.40;;;0.40;;
10523;SDS011;5310;48.638;9.060;2023-02-22T15:55:11;0.50;;;0.50;;
10523;SDS011;5310;48.638;9.060;2023-02-22T15:57:42;0.40;;;0.40;;
10523;SDS011;5310;48.638;9.060;2023-02-22T16:00:17;0.70;;;0.70;;
10523;SDS011;5310;48.638;9.060;2023-02-22T16:02:46;0.50;;;0.50;;
10523;SDS011;5310;48.638;9.060;2023-02-22T16:05:14;0.40;;;0.40;;
10523;SDS011;5310;48.638;9.060;2023-02-22T16:07:46;0.43;;;0.43;;
10523;SDS011;5310;48.638;9.060;2023-02-22T16:10:25;0.70;;;0.70;;
10523;SDS011;5310;48.638;9.060;2023-02-22T16:13:04;0.50;;;0.50;;
10523;SDS011;5310;48.638;9.060;2023-02-22T16:15:31;0.40;;;0.40;;
10523;SDS011;5310;48.638;9.060;2023-02-22T16:18:06;0.60;;;0.60;;
10523;SDS011;5310;48.638;9.060;2023-02-22T16:20:41;0.60;;;0.60;;
10523;SDS011;5310;48.638;9.060;2023-02-22T16:23:23;0.50;;;0.50;;
10523;SDS011;5310;48.638;9.060;2023-02-22T16:26:03;0.40;;;0.40;;
10523;SDS011;5310;48.638;9.060;2023-02-22T16:28:30;0.60;;;0.60;;
10523;SDS011;5310;48.638;9.060;2023-02-22T16:30:58;0.63;;;0.63;;
10523;SDS011;5310;48.638;9.060;2023-02-22T16:33:24;0.50;;;0.50;;
10523;SDS011;5310;48.638;9.060;2023-02-22T16:35:53;0.50;;;0.50;;
10523;SDS011;5310;48.638;9.060;2023-02-22T16:38:21;0.50;;;0.50;;
10523;SDS011;5310;48.638;9.060;2023-02-22T16:40:48;0.50;;;0.50;;
10523;SDS011;5310;48.638;9.060;2023-02-22T16:43:17;0.60;;;0.60;;
10523;SDS011;5310;48.638;9.060;2023-02-22T16:45:43;0.50;;;0.50;;
10523;SDS011;5310;48.638;9.060;2023-02-22T16:48:14;0.50;;;0.50;;
10523;SDS011;5310;48.638;9.060;2023-02-22T16:50:46;0.50;;;0.50;;
10523;SDS011;5310;48.638;9.060;2023-02-22T16:53:12;0.50;;;0.50;;
10523;SDS011;5310;48.638;9.060;2023-02-22T16:55:40;0.50;;;0.50;;
10523;SDS011;5310;48.638;9.060;2023-02-22T16:58:08;0.70;;;0.70;;
10523;SDS011;5310;48.638;9.060;2023-02-22T17:00:35;0.60;;;0.60;;
10523;SDS011;5310;48.638;9.060;2023-02-22T17:03:01;0.67;;;0.67;;
10523;SDS011;5310;48.638;9.060;2023-02-22T17:05:29;0.60;;;0.60;;
10523;SDS011;5310;48.638;9.060;2023-02-22T17:07:56;0.53;;;0.53;;
10523;SDS011;5310;48.638;9.060;2023-02-22T17:10:22;0.50;;;0.50;;
10523;SDS011;5310;48.638;9.060;2023-02-22T17:12:48;0.50;;;0.50;;
10523;SDS011;5310;48.638;9.060;2023-02-22T17:15:18;0.50;;;0.50;;
10523;SDS011;5310;48.638;9.060;2023-02-22T17:17:46;0.57;;;0.57;;
10523;SDS011;5310;48.638;9.060;2023-02-22T17:20:12;0.60;;;0.60;;
10523;SDS011;5310;48.638;9.060;2023-02-22T17:22:38;0.50;;;0.50;;
10523;SDS011;5310;48.638;9.060;2023-02-22T17:25:11;0.50;;;0.50;;
10523;SDS011;5310;48.638;9.060;2023-02-22T17:27:42;0.50;;;0.50;;
10523;SDS011;5310;48.638;9.060;2023-02-22T17:30:08;0.60;;;0.60;;
10523;SDS011;5310;48.638;9.060;2023-02-22T17:32:37;0.60;;;0.60;;
10523;SDS011;5310;48.638;9.060;2023-02-22T17:35:03;0.50;;;0.50;;
10523;SDS011;5310;48.638;9.060;2023-02-22T17:37:29;0.60;;;0.60;;
10523;SDS011;5310;48.638;9.060;2023-02-22T17:39:55;0.50;;;0.50;;